createdAt,value
2024-01-05T00:01:24.113Z,7.00
2024-01-05T00:03:55.325Z,6.90
2024-01-05T00:06:26.472Z,6.90
2024-01-05T00:08:57.901Z,6.90
2024-01-05T00:11:28.881Z,6.90
2024-01-05T00:13:59.806Z,6.80
2024-01-05T00:16:30.756Z,6.70
2024-01-05T00:19:02.216Z,6.60
2024-01-05T00:21:33.569Z,6.80
2024-01-05T00:24:04.833Z,6.90
2024-01-05T00:26:41.386Z,6.80
2024-01-05T00:29:12.385Z,6.90
2024-01-05T00:31:43.297Z,6.70
2024-01-05T00:34:14.491Z,6.70
2024-01-05T00:36:46.019Z,6.50
2024-01-05T00:39:17.598Z,6.60
2024-01-05T00:41:48.990Z,6.60
2024-01-05T00:44:20.706Z,6.70
2024-01-05T00:46:51.671Z,6.60
2024-01-05T00:49:22.660Z,6.60
2024-01-05T00:51:53.558Z,6.70
2024-01-05T00:54:26.490Z,6.70
2024-01-05T00:56:57.507Z,6.60
2024-01-05T00:59:28.572Z,6.50
2024-01-05T01:01:59.459Z,6.40
2024-01-05T01:04:30.523Z,6.50
2024-01-05T01:07:01.536Z,6.50
2024-01-05T01:09:32.517Z,6.50
2024-01-05T01:12:03.824Z,6.50
2024-01-05T01:14:34.757Z,6.60
2024-01-05T01:17:05.668Z,6.70
2024-01-05T01:19:36.607Z,6.70
2024-01-05T01:22:07.564Z,6.80
2024-01-05T01:24:38.471Z,6.50
2024-01-05T01:27:09.520Z,6.60
2024-01-05T01:29:40.593Z,6.60
2024-01-05T01:32:11.604Z,6.60
2024-01-05T01:34:42.552Z,6.70
2024-01-05T01:37:13.542Z,6.80
2024-01-05T01:39:45.322Z,6.60
2024-01-05T01:42:16.397Z,6.60
2024-01-05T01:44:47.353Z,6.60
2024-01-05T01:47:18.601Z,6.50
2024-01-05T01:49:50.170Z,6.50
2024-01-05T01:52:21.587Z,6.60
2024-01-05T01:54:52.640Z,6.60
2024-01-05T01:57:24.904Z,6.70
2024-01-05T01:59:56.446Z,6.70
2024-01-05T02:02:31.067Z,6.80
2024-01-05T02:05:02.119Z,6.90
2024-01-05T02:07:33.160Z,6.90
2024-01-05T02:10:04.439Z,7.00
2024-01-05T02:12:35.514Z,7.00
2024-01-05T02:15:07.432Z,7.10
2024-01-05T02:17:38.421Z,7.10
2024-01-05T02:20:09.931Z,7.10
2024-01-05T02:22:45.840Z,7.10
2024-01-05T02:25:16.874Z,7.20
2024-01-05T02:27:47.748Z,7.20
2024-01-05T02:30:22.154Z,7.20
2024-01-05T02:32:53.181Z,7.10
2024-01-05T02:35:24.156Z,7.20
2024-01-05T02:37:55.050Z,7.20
2024-01-05T02:40:25.981Z,7.10
2024-01-05T02:42:56.954Z,7.10
2024-01-05T02:45:27.901Z,7.10
2024-01-05T02:47:58.987Z,7.10
2024-01-05T02:50:29.952Z,7.10
2024-01-05T02:53:00.860Z,7.00
2024-01-05T02:55:31.723Z,7.10
2024-01-05T02:58:05.990Z,7.10
2024-01-05T03:00:37.268Z,7.00
2024-01-05T03:03:08.373Z,6.90
2024-01-05T03:05:40.476Z,6.90
2024-01-05T03:08:11.482Z,6.90
2024-01-05T03:10:42.458Z,7.00
2024-01-05T03:13:13.421Z,7.10
2024-01-05T03:15:44.321Z,7.00
2024-01-05T03:18:15.334Z,7.00
2024-01-05T03:20:47.606Z,7.00
2024-01-05T03:23:18.519Z,7.10
2024-01-05T03:25:51.587Z,7.10
2024-01-05T03:28:22.467Z,7.10
2024-01-05T03:30:53.564Z,7.00
2024-01-05T03:33:24.776Z,7.00
2024-01-05T03:35:55.852Z,7.10
2024-01-05T03:38:26.762Z,7.10
2024-01-05T03:40:58.208Z,7.10
2024-01-05T03:43:29.260Z,7.00
2024-01-05T03:46:00.190Z,7.20
2024-01-05T03:48:31.207Z,7.20
2024-01-05T03:51:02.233Z,7.10
2024-01-05T03:53:33.156Z,7.30
2024-01-05T03:56:04.323Z,7.30
2024-01-05T03:58:35.544Z,7.30
2024-01-05T04:01:06.534Z,7.40
2024-01-05T04:03:38.133Z,7.40
2024-01-05T04:06:09.124Z,7.40
2024-01-05T04:08:40.449Z,7.50
2024-01-05T04:11:22.038Z,7.50
2024-01-05T04:13:53.045Z,7.40
2024-01-05T04:16:23.919Z,7.40
2024-01-05T04:18:54.901Z,7.40
2024-01-05T04:21:26.027Z,7.60
2024-01-05T04:23:58.352Z,7.80
2024-01-05T04:26:29.289Z,7.80
2024-01-05T04:29:00.317Z,7.80
2024-01-05T04:31:31.446Z,8.00
2024-01-05T04:34:03.644Z,7.90
2024-01-05T04:36:34.807Z,8.10
2024-01-05T04:39:06.059Z,8.10
2024-01-05T04:41:37.463Z,8.30
2024-01-05T04:44:08.340Z,8.40
2024-01-05T04:46:39.288Z,8.50
2024-01-05T04:49:10.248Z,8.60
2024-01-05T04:51:43.998Z,8.60
2024-01-05T04:54:15.278Z,8.70
2024-01-05T04:56:46.185Z,8.70
2024-01-05T04:59:17.114Z,8.80
2024-01-05T05:01:48.066Z,8.80
2024-01-05T05:04:19.158Z,8.80
2024-01-05T05:06:50.220Z,8.80
2024-01-05T05:09:21.213Z,8.80
2024-01-05T05:11:52.113Z,8.80
2024-01-05T05:14:23.105Z,8.80
2024-01-05T05:16:54.115Z,8.80
2024-01-05T05:19:25.277Z,8.80
2024-01-05T05:21:56.376Z,8.80
2024-01-05T05:24:27.565Z,8.80
2024-01-05T05:26:58.697Z,8.80
2024-01-05T05:29:29.598Z,8.80
2024-01-05T05:32:00.546Z,8.80
2024-01-05T05:34:31.542Z,8.80
2024-01-05T05:37:02.586Z,8.80
2024-01-05T05:39:34.609Z,8.80
2024-01-05T05:42:05.819Z,8.80
2024-01-05T05:44:36.711Z,8.90
2024-01-05T05:47:07.646Z,8.90
2024-01-05T05:49:39.100Z,8.90
2024-01-05T05:52:10.110Z,8.90
2024-01-05T05:54:41.082Z,8.90
2024-01-05T05:57:13.395Z,8.90
2024-01-05T05:59:44.508Z,8.90
2024-01-05T06:02:15.396Z,8.90
2024-01-05T06:04:46.323Z,9.00
2024-01-05T06:07:18.125Z,9.00
2024-01-05T06:09:49.015Z,9.00
2024-01-05T06:12:19.934Z,8.90
2024-01-05T06:14:50.942Z,8.90
2024-01-05T06:17:21.881Z,9.00
2024-01-05T06:19:52.830Z,9.00
2024-01-05T06:22:23.783Z,9.00
2024-01-05T06:24:54.722Z,9.00
2024-01-05T06:27:32.818Z,9.00
2024-01-05T06:30:10.872Z,9.00
2024-01-05T06:32:41.995Z,8.70
2024-01-05T06:35:14.505Z,8.70
2024-01-05T06:37:47.225Z,8.60
2024-01-05T06:40:18.103Z,8.50
2024-01-05T06:42:49.128Z,8.30
2024-01-05T06:45:20.196Z,8.30
2024-01-05T06:47:51.920Z,8.30
2024-01-05T06:50:23.346Z,8.20
2024-01-05T06:52:54.329Z,8.10
2024-01-05T06:55:25.235Z,8.00
2024-01-05T06:57:56.181Z,7.90
2024-01-05T07:00:27.116Z,7.80
2024-01-05T07:02:58.198Z,7.80
2024-01-05T07:05:29.187Z,7.70
2024-01-05T07:08:00.079Z,7.70
2024-01-05T07:10:31.158Z,7.70
2024-01-05T07:13:04.051Z,7.70
2024-01-05T07:15:35.453Z,7.70
2024-01-05T07:18:07.269Z,7.80
2024-01-05T07:20:38.422Z,7.80
2024-01-05T07:23:11.308Z,7.80
2024-01-05T07:25:42.199Z,7.70
2024-01-05T07:28:13.086Z,7.80
2024-01-05T07:30:44.133Z,7.70
2024-01-05T07:33:15.214Z,7.70
2024-01-05T07:35:46.196Z,7.60
2024-01-05T07:38:17.054Z,7.70
2024-01-05T07:40:48.328Z,7.70
2024-01-05T07:43:19.301Z,7.70
2024-01-05T07:45:51.309Z,7.70
2024-01-05T07:48:25.355Z,7.80
2024-01-05T07:50:56.446Z,7.80
2024-01-05T07:53:27.463Z,7.80
2024-01-05T07:56:03.779Z,7.80
2024-01-05T07:58:34.961Z,7.80
2024-01-05T08:01:05.914Z,7.80
2024-01-05T08:03:37.058Z,7.70
2024-01-05T08:06:08.128Z,7.80
2024-01-05T08:08:49.056Z,7.80
2024-01-05T08:11:20.205Z,7.70
2024-01-05T08:13:53.042Z,7.70
2024-01-05T08:16:26.055Z,7.60
2024-01-05T08:18:57.062Z,7.60
2024-01-05T08:21:34.726Z,7.70
2024-01-05T08:24:06.113Z,7.60
2024-01-05T08:26:38.724Z,7.60
2024-01-05T08:29:09.715Z,7.60
2024-01-05T08:31:41.022Z,7.70
2024-01-05T08:34:12.178Z,7.80
2024-01-05T08:36:43.262Z,7.90
2024-01-05T08:39:14.267Z,7.90
2024-01-05T08:41:45.193Z,8.00
2024-01-05T08:44:16.198Z,7.70
2024-01-05T08:46:47.225Z,7.70
2024-01-05T08:49:18.786Z,8.00
2024-01-05T08:51:49.791Z,8.00
2024-01-05T08:54:20.767Z,8.00
2024-01-05T08:56:51.855Z,8.00
2024-01-05T08:59:22.772Z,8.10
2024-01-05T09:01:53.755Z,8.30
2024-01-05T09:04:24.729Z,8.30
2024-01-05T09:06:55.681Z,8.40
2024-01-05T09:09:26.748Z,8.30
2024-01-05T09:11:57.676Z,8.30
2024-01-05T09:14:29.176Z,8.30
2024-01-05T09:17:00.335Z,8.10
2024-01-05T09:19:31.346Z,8.10
2024-01-05T09:22:03.434Z,8.10
2024-01-05T09:24:35.108Z,8.20
2024-01-05T09:27:06.319Z,8.20
2024-01-05T09:29:38.053Z,8.20
2024-01-05T09:32:09.137Z,8.20
2024-01-05T09:34:42.911Z,8.00
2024-01-05T09:37:13.837Z,7.90
2024-01-05T09:39:44.875Z,7.90
2024-01-05T09:42:16.385Z,8.00
2024-01-05T09:44:50.013Z,8.10
2024-01-05T09:47:21.134Z,8.10
2024-01-05T09:49:53.107Z,8.20
2024-01-05T09:52:24.192Z,8.20
2024-01-05T09:54:57.507Z,8.20
2024-01-05T09:57:29.057Z,8.30
2024-01-05T10:00:02.082Z,8.20
2024-01-05T10:02:41.994Z,8.30
2024-01-05T10:05:13.276Z,8.20
2024-01-05T10:07:45.378Z,8.20
2024-01-05T10:10:16.315Z,8.20
2024-01-05T10:12:48.952Z,8.20
2024-01-05T10:15:20.004Z,8.30
2024-01-05T10:17:50.945Z,8.40
2024-01-05T10:20:22.922Z,8.60
2024-01-05T10:22:53.868Z,8.70
2024-01-05T10:25:24.917Z,8.70
2024-01-05T10:27:57.616Z,8.70
2024-01-05T10:30:32.271Z,8.70
2024-01-05T10:33:08.468Z,8.60
2024-01-05T10:35:39.574Z,8.50
2024-01-05T10:38:15.054Z,8.60
2024-01-05T10:40:46.108Z,8.60
2024-01-05T10:43:18.268Z,8.60
2024-01-05T10:45:49.905Z,8.70
2024-01-05T10:48:22.532Z,8.80
2024-01-05T10:50:53.984Z,9.00
2024-01-05T10:53:26.248Z,9.00
2024-01-05T10:56:00.206Z,9.10
2024-01-05T10:58:32.058Z,9.10
2024-01-05T11:01:03.924Z,9.10
2024-01-05T11:03:41.316Z,9.20
2024-01-05T11:06:12.565Z,9.10
2024-01-05T11:09:03.421Z,9.20
2024-01-05T11:12:15.974Z,9.20
2024-01-05T11:15:03.943Z,9.40
2024-01-05T11:18:16.714Z,9.40
2024-01-05T11:21:03.932Z,9.40
2024-01-05T11:23:36.339Z,9.60
2024-01-05T11:26:07.842Z,9.60
2024-01-05T11:28:40.059Z,9.60
2024-01-05T11:31:11.171Z,9.50
2024-01-05T11:33:51.037Z,9.50
2024-01-05T11:36:50.394Z,9.50
2024-01-05T11:39:50.440Z,9.40
2024-01-05T11:42:31.153Z,9.20
2024-01-05T11:45:12.751Z,9.30
2024-01-05T11:47:48.531Z,9.30
2024-01-05T11:50:27.459Z,9.20
2024-01-05T11:53:30.486Z,9.30
2024-01-05T11:56:04.631Z,9.40
2024-01-05T11:58:42.201Z,9.40
2024-01-05T12:01:17.035Z,9.30
2024-01-05T12:03:48.184Z,9.40
2024-01-05T12:06:19.254Z,9.40
2024-01-05T12:08:50.898Z,9.40
2024-01-05T12:11:21.811Z,9.40
2024-01-05T12:13:53.314Z,9.40
2024-01-05T12:16:25.862Z,9.40
2024-01-05T12:18:57.067Z,9.30
2024-01-05T12:21:28.125Z,9.20
2024-01-05T12:24:03.450Z,9.20
2024-01-05T12:26:34.500Z,9.20
2024-01-05T12:29:08.625Z,9.20
2024-01-05T12:31:41.710Z,9.20
2024-01-05T12:34:14.624Z,9.20
2024-01-05T12:36:45.734Z,9.30
2024-01-05T12:39:16.659Z,9.40
2024-01-05T12:41:49.512Z,9.50
2024-01-05T12:44:20.660Z,9.50
2024-01-05T12:46:54.202Z,9.50
2024-01-05T12:49:27.242Z,9.50
2024-01-05T12:51:59.119Z,9.60
2024-01-05T12:54:43.709Z,9.60
2024-01-05T12:57:22.462Z,9.60
2024-01-05T13:00:06.709Z,9.60
2024-01-05T13:02:39.418Z,9.70
2024-01-05T13:05:35.792Z,9.80
2024-01-05T13:08:06.990Z,9.70
2024-01-05T13:10:40.920Z,9.70
2024-01-05T13:13:12.034Z,9.70
2024-01-05T13:15:42.981Z,9.70
2024-01-05T13:18:14.276Z,9.70
2024-01-05T13:20:45.320Z,9.70
2024-01-05T13:23:19.148Z,9.80
2024-01-05T13:25:51.469Z,9.80
2024-01-05T13:28:22.365Z,9.90
2024-01-05T13:30:53.466Z,10.00
2024-01-05T13:33:25.029Z,10.00
2024-01-05T13:35:56.119Z,9.80
2024-01-05T13:38:27.072Z,9.90
2024-01-05T13:40:58.165Z,10.00
2024-01-05T13:43:29.082Z,10.00
2024-01-05T13:46:02.584Z,10.10
2024-01-05T13:48:33.731Z,10.10
2024-01-05T13:51:04.908Z,9.90
2024-01-05T13:53:35.889Z,9.90
2024-01-05T13:56:06.962Z,9.90
2024-01-05T13:58:37.959Z,9.80
2024-01-05T14:01:10.223Z,9.80
2024-01-05T14:03:41.166Z,9.80
2024-01-05T14:06:13.530Z,9.80
2024-01-05T14:08:44.741Z,9.80
2024-01-05T14:11:17.114Z,9.80
2024-01-05T14:13:48.048Z,9.80
2024-01-05T14:16:19.004Z,9.80
2024-01-05T14:18:51.445Z,9.90
2024-01-05T14:21:27.560Z,10.00
2024-01-05T14:23:58.470Z,9.90
2024-01-05T14:26:29.902Z,9.70
2024-01-05T14:29:00.813Z,9.80
2024-01-05T14:31:36.472Z,9.80
2024-01-05T14:34:08.060Z,9.80
2024-01-05T14:36:39.336Z,9.80
2024-01-05T14:39:11.078Z,9.80
2024-01-05T14:41:42.053Z,9.70
2024-01-05T14:44:13.504Z,9.80
2024-01-05T14:46:44.418Z,9.80
2024-01-05T14:49:15.450Z,9.90
2024-01-05T14:51:48.953Z,9.80
2024-01-05T14:54:19.973Z,9.80
2024-01-05T14:56:50.985Z,9.70
2024-01-05T14:59:22.017Z,9.70
2024-01-05T15:01:52.943Z,9.70
2024-01-05T15:04:23.886Z,9.70
2024-01-05T15:06:55.797Z,9.70
2024-01-05T15:09:27.858Z,9.70
2024-01-05T15:11:59.985Z,9.60
2024-01-05T15:14:33.993Z,9.60
2024-01-05T15:17:05.090Z,9.60
2024-01-05T15:19:41.136Z,9.60
2024-01-05T15:22:12.446Z,9.70
2024-01-05T15:24:46.508Z,9.70
2024-01-05T15:27:17.504Z,9.60
2024-01-05T15:29:48.452Z,9.50
2024-01-05T15:32:19.393Z,9.40
2024-01-05T15:34:51.773Z,9.30
2024-01-05T15:37:22.687Z,9.30
2024-01-05T15:39:55.215Z,9.30
2024-01-05T15:42:26.610Z,9.30
2024-01-05T15:44:57.546Z,9.30
2024-01-05T15:47:28.874Z,9.30
2024-01-05T15:49:59.825Z,9.30
2024-01-05T15:52:31.797Z,9.20
2024-01-05T15:55:02.751Z,9.20
2024-01-05T15:57:33.705Z,9.20
2024-01-05T16:00:06.311Z,9.20
2024-01-05T16:02:37.741Z,9.20
2024-01-05T16:05:09.613Z,9.10
2024-01-05T16:07:40.653Z,9.00
2024-01-05T16:10:11.643Z,9.00
2024-01-05T16:12:42.551Z,9.00
2024-01-05T16:15:15.515Z,9.00
2024-01-05T16:17:46.555Z,8.90
2024-01-05T16:20:20.204Z,8.90
2024-01-05T16:22:51.980Z,8.90
2024-01-05T16:25:22.844Z,8.90
2024-01-05T16:27:53.882Z,8.80
2024-01-05T16:30:25.108Z,8.80
2024-01-05T16:32:56.084Z,8.80
2024-01-05T16:35:27.021Z,8.70
2024-01-05T16:37:58.149Z,8.70
2024-01-05T16:40:29.065Z,8.60
2024-01-05T16:43:02.273Z,8.60
2024-01-05T16:45:33.164Z,8.60
2024-01-05T16:48:04.780Z,8.60
2024-01-05T16:50:35.994Z,8.50
2024-01-05T16:53:07.419Z,8.50
2024-01-05T16:55:41.282Z,8.40
2024-01-05T16:58:12.230Z,8.40
2024-01-05T17:00:43.188Z,8.30
2024-01-05T17:03:15.511Z,8.30
2024-01-05T17:05:48.539Z,8.20
2024-01-05T17:08:19.692Z,8.10
2024-01-05T17:10:51.039Z,8.00
2024-01-05T17:13:21.973Z,7.90
2024-01-05T17:15:53.071Z,7.90
2024-01-05T17:18:26.621Z,7.90
2024-01-05T17:20:57.848Z,7.80
2024-01-05T17:23:28.701Z,7.70
2024-01-05T17:26:02.317Z,7.60
2024-01-05T17:28:33.259Z,7.50
2024-01-05T17:31:04.840Z,7.50
2024-01-05T17:33:35.855Z,7.40
2024-01-05T17:36:07.555Z,7.50
2024-01-05T17:38:38.519Z,7.40
2024-01-05T17:41:10.352Z,7.40
2024-01-05T17:43:42.179Z,7.40
2024-01-05T17:46:13.416Z,7.30
2024-01-05T17:48:44.661Z,7.30
2024-01-05T17:51:16.229Z,7.30
2024-01-05T17:53:47.470Z,7.30
2024-01-05T17:56:22.647Z,7.30
2024-01-05T17:58:53.773Z,7.20
2024-01-05T18:01:25.450Z,7.20
2024-01-05T18:03:56.519Z,7.20
2024-01-05T18:06:27.552Z,7.10
2024-01-05T18:08:59.604Z,7.10
2024-01-05T18:11:30.581Z,7.10
2024-01-05T18:14:01.802Z,7.10
2024-01-05T18:16:36.873Z,7.10
2024-01-05T18:19:09.762Z,7.00
2024-01-05T18:21:45.827Z,7.00
2024-01-05T18:24:17.060Z,7.00
2024-01-05T18:26:48.008Z,7.00
2024-01-05T18:29:25.253Z,7.00
2024-01-05T18:32:00.425Z,7.10
2024-01-05T18:34:32.037Z,7.00
2024-01-05T18:37:03.207Z,7.10
2024-01-05T18:39:34.107Z,7.00
2024-01-05T18:42:05.861Z,6.90
2024-01-05T18:44:36.762Z,6.90
2024-01-05T18:47:08.373Z,7.00
2024-01-05T18:49:39.907Z,6.90
2024-01-05T18:52:10.873Z,6.90
2024-01-05T18:54:43.180Z,6.90
2024-01-05T18:57:15.899Z,6.90
2024-01-05T18:59:47.034Z,6.90
2024-01-05T19:02:17.918Z,6.90
2024-01-05T19:04:49.438Z,6.80
2024-01-05T19:07:20.421Z,6.80
2024-01-05T19:09:51.560Z,6.90
2024-01-05T19:12:22.831Z,6.80
2024-01-05T19:14:53.892Z,6.80
2024-01-05T19:17:25.025Z,6.80
2024-01-05T19:19:56.201Z,6.80
2024-01-05T19:22:27.217Z,6.70
2024-01-05T19:24:58.166Z,6.70
2024-01-05T19:27:29.203Z,6.80
2024-01-05T19:30:00.903Z,6.70
2024-01-05T19:32:31.857Z,6.70
2024-01-05T19:35:04.835Z,6.70
2024-01-05T19:37:35.913Z,6.60
2024-01-05T19:40:08.711Z,6.60
2024-01-05T19:42:41.971Z,6.60
2024-01-05T19:45:13.593Z,6.60
2024-01-05T19:47:45.715Z,6.60
2024-01-05T19:50:16.713Z,6.60
2024-01-05T19:52:47.671Z,6.60
2024-01-05T19:55:19.372Z,6.50
2024-01-05T19:57:50.595Z,6.50
2024-01-05T20:00:22.386Z,6.60
2024-01-05T20:02:54.204Z,6.70
2024-01-05T20:05:26.886Z,6.70
2024-01-05T20:08:00.011Z,6.60
2024-01-05T20:10:31.272Z,6.60
2024-01-05T20:13:02.453Z,6.70
2024-01-05T20:15:34.997Z,6.70
2024-01-05T20:18:07.640Z,6.70
2024-01-05T20:20:38.906Z,6.80
2024-01-05T20:23:15.025Z,6.80
2024-01-05T20:25:46.432Z,6.90
2024-01-05T20:28:17.428Z,7.00
2024-01-05T20:30:48.496Z,7.00
2024-01-05T20:33:20.469Z,7.10
2024-01-05T20:35:51.720Z,7.10
2024-01-05T20:38:22.977Z,7.00
2024-01-05T20:40:53.894Z,7.10
2024-01-05T20:43:24.929Z,7.10
2024-01-05T20:45:55.929Z,7.20
2024-01-05T20:48:27.074Z,7.20
2024-01-05T20:50:58.026Z,7.20
2024-01-05T20:53:29.802Z,7.20
2024-01-05T20:56:00.845Z,7.10
2024-01-05T20:58:31.816Z,7.20
2024-01-05T21:01:03.471Z,7.10
2024-01-05T21:03:35.499Z,7.10
2024-01-05T21:06:07.344Z,7.10
2024-01-05T21:08:38.297Z,7.20
2024-01-05T21:11:09.242Z,7.20
2024-01-05T21:13:40.513Z,7.10
2024-01-05T21:16:11.464Z,7.10
2024-01-05T21:18:42.493Z,7.10
2024-01-05T21:21:13.599Z,7.10
2024-01-05T21:23:44.553Z,7.30
2024-01-05T21:26:15.472Z,7.30
2024-01-05T21:28:46.361Z,7.30
2024-01-05T21:31:17.615Z,7.20
2024-01-05T21:33:50.687Z,7.30
2024-01-05T21:36:21.719Z,7.20
2024-01-05T21:38:52.661Z,7.40
2024-01-05T21:41:24.380Z,7.20
2024-01-05T21:43:55.330Z,7.30
2024-01-05T21:46:26.505Z,7.20
2024-01-05T21:48:57.958Z,7.20
2024-01-05T21:51:28.969Z,7.20
2024-01-05T21:54:00.999Z,7.30
2024-01-05T21:56:32.041Z,7.20
2024-01-05T21:59:03.110Z,7.20
2024-01-05T22:01:34.013Z,7.10
2024-01-05T22:04:05.386Z,7.10
2024-01-05T22:06:38.029Z,7.00
2024-01-05T22:09:17.146Z,7.00
2024-01-05T22:11:48.268Z,6.90
2024-01-05T22:14:19.801Z,6.90
2024-01-05T22:16:53.858Z,6.90
2024-01-05T22:19:25.121Z,6.80
2024-01-05T22:21:56.167Z,6.80
2024-01-05T22:24:27.170Z,6.80
2024-01-05T22:26:58.511Z,6.70
2024-01-05T22:29:29.462Z,6.70
2024-01-05T22:32:00.491Z,6.70
2024-01-05T22:34:35.917Z,6.60
2024-01-05T22:37:07.469Z,6.60
2024-01-05T22:39:39.249Z,6.60
2024-01-05T22:42:12.609Z,6.50
2024-01-05T22:44:43.616Z,6.50
2024-01-05T22:47:14.502Z,6.50
2024-01-05T22:49:45.524Z,6.50
2024-01-05T22:52:16.490Z,6.40
2024-01-05T22:54:47.420Z,6.40
2024-01-05T22:57:18.742Z,6.50
2024-01-05T22:59:50.005Z,6.60
2024-01-05T23:02:20.913Z,6.50
2024-01-05T23:04:51.933Z,6.40
2024-01-05T23:07:23.080Z,6.50
2024-01-05T23:09:54.108Z,6.50
2024-01-05T23:12:25.167Z,6.50
2024-01-05T23:14:56.467Z,6.40
2024-01-05T23:17:27.688Z,6.50
2024-01-05T23:19:58.645Z,6.50
2024-01-05T23:22:29.951Z,6.50
2024-01-05T23:25:00.840Z,6.40
2024-01-05T23:27:34.876Z,6.40
2024-01-05T23:30:07.310Z,6.30
2024-01-05T23:32:39.597Z,6.30
2024-01-05T23:35:11.457Z,6.20
2024-01-05T23:37:42.774Z,6.20
2024-01-05T23:40:14.187Z,6.30
2024-01-05T23:42:45.194Z,6.40
2024-01-05T23:45:16.355Z,6.40
2024-01-05T23:47:47.310Z,6.40
2024-01-05T23:50:18.995Z,6.40
2024-01-05T23:52:50.173Z,6.40
2024-01-05T23:55:21.202Z,6.40
2024-01-05T23:57:52.225Z,6.40
